Houston's Hourly Summary for Thursday, May 10, 2018
Hour Temp
(f)
RH
(%)
Solar Rad.
(MJ/m2)
Rainfall
(in)
Wind
(mph)
5/10/2018 12:00 AM 68 76 0 0 0
5/10/2018 1:00 AM 67 83 0 0 0
5/10/2018 2:00 AM 67 88 0 0 0
5/10/2018 3:00 AM 66 91 0 0 0
5/10/2018 4:00 AM 64 94 0 0 0
5/10/2018 5:00 AM 63 99 0 0 0
5/10/2018 6:00 AM 64 99 0 0 0
5/10/2018 7:00 AM 63 99 0.04 0 0
5/10/2018 8:00 AM 66 90 0.56 0 0
5/10/2018 9:00 AM 74 70 1.23 0 1.35
5/10/2018 10:00 AM 77 58 1.69 0 5.17
5/10/2018 11:00 AM 80 44 2.16 0 5.44
5/10/2018 12:00 PM 83 38 2.61 0 5.35
5/10/2018 1:00 PM 84 34 3.34 0 7.1
5/10/2018 2:00 PM 85 33 3.12 0 6.72
5/10/2018 3:00 PM 86 34 3.18 0 6.8
5/10/2018 4:00 PM 85 36 2.69 0 7.58
5/10/2018 5:00 PM 85 35 2.39 0 8.58
5/10/2018 6:00 PM 84 31 1.72 0 7.28
5/10/2018 7:00 PM 83 32 0.97 0 5.95
5/10/2018 8:00 PM 80 36 0.17 0 5.21
5/10/2018 9:00 PM 77 48 0 0 4.03
5/10/2018 10:00 PM 75 55 0 0 1.11
5/10/2018 11:00 PM 73 70 0 0 0
Data Summary 74 61 25.87 0.00 3.24